• Join FlightAware (Why Join?)
  • Login
  • US Flag 
01:24PM EST


 

Airport Tracker/Info


-or-


 

Live Flight TrackerFlight Track Log ✈ SWA1969 ✈ 07-Apr-2013 ✈ KMDW - KMHT

Flight Track Log - Related Links

Times and Time Zones

All times are in EDT time to prevent confusion due to time zone crossing. See the SWA1969 flight status page for this flight to view local times or setup timezone preferences in your user account.

Time Position Orientation Groundspeed Altitude Reporting Facility
EDT Latitude Longitude Course Direction KTS MPH feet Rate Location/Type
11:18AM 41.7500 -87.7167 114° Southeast 228 262 3,900  Level Chicago TRACON
11:20AM 41.7586 -87.5106 87° East 306 352 10,600 3,600 Climbing Chicago Center
11:21AM 41.7594 -87.3881 89° East 325 374 14,700 3,360 Climbing Chicago Center
11:22AM 41.7636 -87.2561 88° East 356 410 17,500 2,820 Climbing Chicago Center
11:23AM 41.7792 -87.1086 82° East 396 456 20,600 2,940 Climbing Chicago Center
11:24AM 41.7933 -86.9542 83° East 412 474 23,600 3,000 Climbing Chicago Center
11:25AM 41.8114 -86.7600 83° East 434 499 26,800 2,640 Climbing Chicago Center
11:26AM 41.8281 -86.5869 83° East 453 521 29,100 2,040 Climbing Chicago Center
11:27AM 41.8475 -86.4128 81° East 469 540 31,100 1,800 Climbing Chicago Center
11:28AM 41.8736 -86.2342 79° East 484 557 32,900 1,920 Climbing Chicago Center
11:29AM 41.8961 -86.0531 80° East 489 563 35,100 1,920 Climbing Chicago Center
11:30AM 41.9175 -85.8739 81° East 486 559 36,900 1,620 Climbing Chicago Center
11:31AM 41.9397 -85.6947 80° East 484 557 38,500 1,020 Climbing Chicago Center
11:32AM 41.9619 -85.5139 81° East 486 559 39,000 240 Climbing Chicago Center
11:33AM 41.9833 -85.3308 81° East 491 565 39,000  Level Chicago Center
11:34AM 42.0067 -85.1356 81° East 493 567 39,000  Level Chicago Center
11:35AM 42.0272 -84.9567 81° East 489 563 39,000  Level Chicago Center
11:36AM 42.0478 -84.7758 81° East 490 564 39,000  Level Chicago Center
11:37AM 42.0722 -84.5614 81° East 483 556 39,000  Level Cleveland Center
11:38AM 42.0931 -84.3778 81° East 483 556 39,000  Level Cleveland Center
11:39AM 42.1067 -84.2164 83° East 488 562 39,000  Level Cleveland Center
11:40AM 42.1269 -84.0353 81° East 483 556 39,000  Level Cleveland Center
11:41AM 42.1447 -83.8542 82° East 483 556 39,000  Level Cleveland Center
11:42AM 42.1644 -83.6731 82° East 483 556 39,000  Level Cleveland Center
11:43AM 42.1842 -83.4722 82° East 483 556 39,000  Level Cleveland Center
11:44AM 42.2028 -83.3078 81° East 483 556 39,000  Level Cleveland Center
11:45AM 42.2200 -83.1067 83° East 483 556 39,000  Level Cleveland Center
11:46AM 42.2383 -82.9250 82° East 483 556 39,000  Level Cleveland Center
11:47AM 42.2544 -82.7433 83° East 483 556 39,000  Level Cleveland Center
11:48AM 42.2722 -82.5586 83° East 483 556 39,000  Level Cleveland Center
11:49AM 42.2900 -82.3767 82° East 483 556 39,000  Level Cleveland Center
11:50AM 42.3050 -82.1919 84° East 483 556 39,000  Level Cleveland Center
11:51AM 42.3242 -82.0069 82° East 483 556 39,000  Level Cleveland Center
11:52AM 42.3389 -81.8247 84° East 488 562 39,000  Level Cleveland Center
11:53AM 42.3553 -81.6425 83° East 488 562 39,000  Level Cleveland Center
11:54AM 42.3714 -81.4600 83° East 488 562 39,000  Level Cleveland Center
11:55AM 42.3872 -81.2719 83° East 494 568 39,000  Level Cleveland Center
11:56AM 42.4028 -81.0922 83° East 494 568 39,000  Level Cleveland Center
11:57AM 42.4139 -80.9264 85° East 494 568 39,000  Level Cleveland Center
11:58AM 42.4289 -80.7378 84° East 494 568 39,000  Level Cleveland Center
11:59AM 42.4414 -80.5494 85° East 499 574 39,000  Level Cleveland Center
12:00PM 42.4581 -80.3664 83° East 499 574 39,000  Level Cleveland Center
12:01PM 42.4700 -80.1778 85° East 499 574 39,000  Level Cleveland Center
12:02PM 42.4856 -79.9722 84° East 499 574 39,000  Level Cleveland Center
12:03PM 42.4992 -79.8058 84° East 493 567 39,000  Level Cleveland Center
12:04PM 42.5103 -79.6200 85° East 493 567 39,000  Level Cleveland Center
12:05PM 42.5214 -79.4394 85° East 493 567 39,000  Level Cleveland Center
12:06PM 42.5339 -79.2533 85° East 493 567 39,000  Level Cleveland Center
12:07PM 42.5461 -79.0697 85° East 493 567 39,000  Level Cleveland Center
12:08PM 42.5561 -78.8864 86° East 493 567 39,000  Level Cleveland Center
12:09PM 42.5678 -78.7000 85° East 493 567 39,000  Level Cleveland Center
12:10PM 42.5772 -78.5164 86° East 493 567 39,000  Level Cleveland Center
12:11PM 42.5883 -78.3300 85° East 493 567 39,000  Level Cleveland Center
12:12PM 42.5992 -78.1461 85° East 498 573 39,000  Level Cleveland Center
12:13PM 42.6078 -77.9625 86° East 493 567 39,000  Level Cleveland Center
12:14PM 42.6181 -77.7814 86° East 493 567 39,000  Level Cleveland Center
12:15PM 42.6281 -77.6003 86° East 480 552 39,000  Level Cleveland Center
12:17PM 42.6469 -77.1408 87° East 469 540 39,000  Level Boston Center
12:18PM 42.6542 -76.9633 87° East 475 547 39,000  Level Boston Center
12:20PM 42.6636 -76.7778 86° East 475 547 39,000  Level Boston Center
12:21PM 42.6706 -76.5944 87° East 475 547 39,000  Level Boston Center
12:21PM 42.6792 -76.4114 86° East 475 547 39,000  Level Boston Center
12:22PM 42.6819 -76.2647 88° East 480 552 39,000  Level Boston Center
12:23PM 42.6914 -76.0447 87° East 475 547 39,000  Level Boston Center
12:25PM 42.6969 -75.8614 88° East 475 547 39,000  Level Boston Center
12:25PM 42.7022 -75.6836 88° East 475 547 39,000  Level Boston Center
12:26PM 42.7072 -75.5003 88° East 475 547 39,000  Level Boston Center
12:27PM 42.7142 -75.3169 87° East 480 552 39,000 -180 Level Boston Center
12:29PM 42.7206 -75.1392 87° East 475 547 38,700 -1,320 Descending Boston Center
12:29PM 42.7228 -74.9583 89° East 475 547 36,400 -2,700 Descending Boston Center
12:30PM 42.7267 -74.7747 88° East 475 547 33,400 -3,000 Descending Boston Center
12:31PM 42.7322 -74.5911 88° East 475 547 30,400 -2,820 Descending Boston Center
12:32PM 42.7356 -74.4103 89° East 475 547 27,900 -2,520 Descending Boston Center
12:33PM 42.7364 -74.2267 90° East 475 547 25,400 -1,920 Descending Boston Center
12:34PM 42.7411 -74.0600 88° East 462 532 24,000 -900 Descending Boston Center
12:36PM 42.7433 -73.8933 89° East 446 513 23,600 -720 Descending Boston Center
12:36PM 42.7494 -73.7236 87° East 441 507 22,600 -960 Descending Boston Center
12:37PM 42.7572 -73.5769 86° East 436 502 21,700 -960 Descending Boston Center
12:38PM 42.7631 -73.4158 87° East 436 502 20,700 -1,020 Descending Boston Center
12:39PM 42.7686 -73.2517 87° East 436 502 19,700 -840 Descending Boston Center
12:41PM 42.7717 -73.0736 89° East 431 496 19,000 -360 Descending Boston Center
12:41PM 42.7786 -72.9239 86° East 418 481 19,000  Level Boston Center
12:42PM 42.7833 -72.7653 88° East 418 481 19,000 -540 Level Boston Center
12:44PM 42.7878 -72.6128 88° East 408 470 17,900 -1,740 Descending Boston Center
12:45PM 42.7922 -72.4344 88° East 402 463 15,200 -2,520 Descending Boston Center
12:46PM 42.7964 -72.2844 88° East 402 463 13,000 -2,280 Descending Boston Center
12:47PM 42.8064 -72.1400 85° East 388 447 10,700 -1,440 Descending Boston Center
12:48PM 42.8164 -72.0042 84° East 374 430 10,100 -960 Descending Boston Center
12:49PM 42.8367 -71.8853 77° East 330 380 8,800 -1,320 Descending Boston Center
12:50PM 42.8947 -71.7997 47° Northeast 301 346 7,500 -1,500 Descending Boston Center
12:51PM 42.9544 -71.7111 47° Northeast 306 352 5,900 -1,620 Descending Boston Center
12:52PM 43.0019 -71.6167 55° Northeast 306 352 4,300 -1,140 Descending Boston Center
12:53PM 43.0344 -71.5283 63° Northeast 274 315 3,600 -1,020 Descending Boston Center
12:54PM 43.0175 -71.4803 116° Southeast 149 171 2,300 -1,200 Descending Boston Center
12:55PM 42.9839 -71.4667 163° South 116 133 1,300 -900 Descending Boston Center
12:56PM 42.9525 -71.4472 156° South 121 139 600 -480 Descending Boston Center
12:57PM 42.9211 -71.4250 153° Southeast 126 145 400 9,000 Descending Boston Center
12:58PM 42.8897 -71.4058 156° South 126 145 19,000 9,360 Climbing Boston Center
12:59PM 42.8581 -71.3836 153° Southeast 126 145 19,000  Level Boston Center
01:00PM 42.8267 -71.3644 156° South 126 145 19,000  Level Boston Center
01:02PM 42.9167 -71.4333 316° Northwest  Level FlightAware Approximate
01:09PM 42.9328 -71.4358 316° Northwest  Level Estimated
01:10PM 42.9328 -71.4358 316° Northwest  Level Estimated
01:11PM 42.9328 -71.4358 316° Northwest  Level Estimated